Time;durP1;ratioP1;P1;durP2;ratioP2;P2;SDS_P1;SDS_P2;PMS_P1;PMS_P2;Temp;Humidity;BMP_temperature;BMP_pressure;BME280_temperature;BME280_humidity;BME280_pressure;Samples;Min_cycle;Max_cycle;Signal;HPM_P1;HPM_P2
2022/12/05 00:03:02;;;;;;;21.70;9.90;;;;;;;-0.56;100.00;100805.67;105273;1298;1002031;-73
2022/12/05 00:05:50;;;;;;;21.40;9.70;;;;;;;-0.57;100.00;100801.35;105839;1298;73478;-71
2022/12/05 00:08:38;;;;;;;17.90;8.30;;;;;;;-0.56;100.00;100807.44;105971;1292;59667;-73
2022/12/05 00:11:31;;;;;;;23.00;10.60;;;;;;;-0.61;100.00;100803.52;106006;1298;58275;-73
2022/12/05 00:14:19;;;;;;;21.80;9.80;;;;;;;-0.61;100.00;100802.29;105930;1291;71424;-73
2022/12/05 00:17:06;;;;;;;21.00;9.60;;;;;;;-0.61;100.00;100799.14;105944;1290;66228;-72
2022/12/05 00:19:54;;;;;;;20.70;9.30;;;;;;;-0.58;100.00;100791.43;105804;1301;73480;-72
2022/12/05 00:22:43;;;;;;;18.40;8.90;;;;;;;-0.57;100.00;100788.09;105911;1292;57430;-73
2022/12/05 00:25:31;;;;;;;21.90;10.90;;;;;;;-0.56;100.00;100787.55;105913;1290;61462;-72
2022/12/05 00:28:18;;;;;;;26.40;11.90;;;;;;;-0.58;100.00;100785.15;105989;1290;73098;-71
2022/12/05 00:31:14;;;;;;;19.80;8.90;;;;;;;-0.61;100.00;100780.52;105993;1290;69117;-71
2022/12/05 00:34:02;;;;;;;20.70;9.40;;;;;;;-0.63;100.00;100781.07;105775;1287;73904;-71
2022/12/05 00:36:50;;;;;;;23.10;11.60;;;;;;;-0.65;100.00;100781.81;106013;1291;59632;-72
2022/12/05 00:39:38;;;;;;;24.70;11.10;;;;;;;-0.70;100.00;100785.58;105805;1294;60091;-72
2022/12/05 00:42:25;;;;;;;26.10;12.20;;;;;;;-0.68;100.00;100779.42;106004;1291;73304;-71
2022/12/05 00:45:13;;;;;;;25.00;10.90;;;;;;;-0.68;100.00;100781.86;105977;1290;68641;-72
2022/12/05 00:48:01;;;;;;;24.80;12.50;;;;;;;-0.69;100.00;100783.45;105998;1292;72548;-72
2022/12/05 00:50:48;;;;;;;24.50;10.80;;;;;;;-0.75;100.00;100781.13;105971;1288;60043;-71
2022/12/05 00:53:37;;;;;;;24.00;11.80;;;;;;;-0.73;100.00;100776.56;105981;1290;61181;-72
2022/12/05 00:56:26;;;;;;;20.80;10.80;;;;;;;-0.72;100.00;100766.27;105959;1289;72401;-72
2022/12/05 00:59:16;;;;;;;24.70;11.90;;;;;;;-0.72;100.00;100764.34;106008;1290;67911;-71
2022/12/05 01:02:04;;;;;;;24.60;10.50;;;;;;;-0.76;100.00;100776.78;105981;1290;73806;-72
2022/12/05 01:04:52;;;;;;;27.10;12.30;;;;;;;-0.78;100.00;100776.66;106020;1292;57127;-72
2022/12/05 01:07:39;;;;;;;24.60;11.50;;;;;;;-0.78;100.00;100780.49;105931;1293;61706;-72
2022/12/05 01:10:27;;;;;;;23.80;11.10;;;;;;;-0.78;100.00;100779.62;106006;1292;72174;-72
2022/12/05 01:13:15;;;;;;;27.10;12.20;;;;;;;-0.80;100.00;100778.78;105995;1291;66628;-72
2022/12/05 01:16:03;;;;;;;24.60;11.70;;;;;;;-0.85;100.00;100783.06;105986;1297;73713;-72
2022/12/05 01:18:52;;;;;;;24.60;12.30;;;;;;;-0.90;100.00;100786.29;105895;1284;59864;-71
2022/12/05 01:21:39;;;;;;;27.30;13.10;;;;;;;-0.89;100.00;100786.45;105896;1292;60601;-72
2022/12/05 01:24:29;;;;;;;24.90;11.10;;;;;;;-0.91;100.00;100791.73;105974;1292;72226;-71
2022/12/05 01:27:17;;;;;;;28.20;12.70;;;;;;;-0.92;100.00;100792.44;105796;1280;67826;-71
2022/12/05 01:30:05;;;;;;;29.60;13.50;;;;;;;-0.91;100.00;100789.27;105992;1291;73926;-71
2022/12/05 01:32:53;;;;;;;27.60;12.70;;;;;;;-0.91;100.00;100789.09;105987;1290;58952;-71
2022/12/05 01:35:41;;;;;;;27.50;12.20;;;;;;;-0.91;100.00;100781.95;105772;1290;61208;-72
2022/12/05 01:38:29;;;;;;;27.50;12.50;;;;;;;-0.94;100.00;100783.59;105883;1295;72181;-72
2022/12/05 01:41:31;;;;;;;23.00;11.20;;;;;;;-0.95;100.00;100780.48;105886;1290;68631;-72
2022/12/05 01:44:25;;;;;;;26.30;13.20;;;;;;;-0.98;100.00;100779.98;105771;1294;70794;-72
2022/12/05 01:47:17;;;;;;;23.90;11.40;;;;;;;-0.98;100.00;100776.16;105052;1301;1003048;-71
2022/12/05 01:50:06;;;;;;;26.50;11.40;;;;;;;-0.98;100.00;100771.29;105847;1290;61397;-72
2022/12/05 01:52:55;;;;;;;23.10;10.90;;;;;;;-0.97;100.00;100776.68;105851;1292;71875;-72
2022/12/05 01:55:46;;;;;;;24.30;11.60;;;;;;;-0.99;100.00;100772.52;105760;1292;67654;-72
2022/12/05 01:58:37;;;;;;;22.10;10.40;;;;;;;-1.00;100.00;100757.05;105774;1293;73702;-72
2022/12/05 02:01:25;;;;;;;24.90;10.50;;;;;;;-1.03;100.00;100765.12;105858;1295;59847;-72
2022/12/05 02:04:13;;;;;;;21.20;9.40;;;;;;;-1.00;100.00;100766.80;105893;1294;60426;-73
2022/12/05 02:07:00;;;;;;;29.10;12.30;;;;;;;-0.98;100.00;100772.85;105867;1292;72015;-72
2022/12/05 02:09:50;;;;;;;27.40;12.50;;;;;;;-0.95;100.00;100777.16;105893;1292;67702;-72
2022/12/05 02:12:38;;;;;;;27.60;13.00;;;;;;;-0.93;100.00;100777.98;105862;1293;71542;-71
2022/12/05 02:15:41;;;;;;;24.20;11.90;;;;;;;-0.96;100.00;100778.73;105868;1287;59992;-71
2022/12/05 02:19:03;;;;;;;25.00;11.70;;;;;;;-0.96;100.00;100775.79;105880;1287;61524;-71
2022/12/05 02:22:40;;;;;;;26.10;11.90;;;;;;;-0.92;100.00;100773.45;105913;1292;73380;-74
2022/12/05 02:26:11;;;;;;;25.60;11.50;;;;;;;-0.97;100.00;100772.65;105746;1295;67794;-72
2022/12/05 02:29:23;;;;;;;29.40;12.10;;;;;;;-1.04;100.00;100777.84;105147;1292;1002054;-72
2022/12/05 02:32:50;;;;;;;22.40;10.70;;;;;;;-1.04;100.00;100779.76;105881;1292;57912;-72
2022/12/05 02:35:55;;;;;;;25.90;13.00;;;;;;;-1.05;100.00;100779.61;105717;1295;61376;-72
2022/12/05 02:39:05;;;;;;;24.40;10.90;;;;;;;-1.06;100.00;100777.69;105126;1290;1002169;-73
2022/12/05 02:42:08;;;;;;;21.70;8.90;;;;;;;-1.03;100.00;100775.89;105858;1285;69007;-72
2022/12/05 02:45:09;;;;;;;22.60;9.90;;;;;;;-1.05;100.00;100770.20;105148;1298;1002561;-74
2022/12/05 02:47:58;;;;;;;17.50;8.80;;;;;;;-1.08;100.00;100767.64;105763;1295;58711;-73
2022/12/05 02:50:49;;;;;;;22.60;11.30;;;;;;;-1.16;100.00;100760.47;105737;1290;61144;-72
2022/12/05 02:53:38;;;;;;;24.80;12.40;;;;;;;-1.16;100.00;100759.08;105873;1292;69992;-73
2022/12/05 02:56:28;;;;;;;27.30;12.30;;;;;;;-1.14;100.00;100755.40;105816;1292;67585;-73
2022/12/05 02:59:16;;;;;;;25.60;12.90;;;;;;;-1.14;100.00;100757.48;105800;1292;72329;-72
2022/12/05 03:02:25;;;;;;;28.50;12.30;;;;;;;-1.19;100.00;100751.82;105873;1294;58913;-73
2022/12/05 03:05:46;;;;;;;24.70;11.80;;;;;;;-1.17;100.00;100748.83;105859;1292;61260;-72
2022/12/05 03:09:01;;;;;;;26.60;12.40;;;;;;;-1.16;100.00;100751.59;105645;1292;71914;-75
2022/12/05 03:12:04;;;;;;;18.40;8.10;;;;;;;-1.17;100.00;100751.95;105594;1300;67948;-74
2022/12/05 03:15:02;;;;;;;26.50;12.40;;;;;;;-1.18;100.00;100749.37;105779;1295;73772;-73
2022/12/05 03:17:58;;;;;;;24.90;12.90;;;;;;;-1.21;100.00;100746.80;105711;1295;58762;-75
2022/12/05 03:21:21;;;;;;;25.10;11.60;;;;;;;-1.16;100.00;100734.35;105765;1290;58898;-73
2022/12/05 03:24:13;;;;;;;22.40;12.70;;;;;;;-1.12;100.00;100732.36;105811;1290;73006;-73
2022/12/05 03:27:29;;;;;;;25.90;13.20;;;;;;;-1.14;100.00;100729.95;105783;1294;66216;-72
2022/12/05 03:30:21;;;;;;;25.40;12.90;;;;;;;-1.14;100.00;100724.91;105711;1294;73052;-72
2022/12/05 03:33:20;;;;;;;26.60;12.50;;;;;;;-1.14;100.00;100728.38;105744;1293;58689;-71
2022/12/05 03:36:22;;;;;;;25.80;12.30;;;;;;;-1.14;100.00;100725.42;105994;1284;60424;-71
2022/12/05 03:39:42;;;;;;;21.70;9.40;;;;;;;-1.12;100.00;100722.27;105971;1286;73339;-73
2022/12/05 03:42:35;;;;;;;20.30;9.90;;;;;;;-1.11;100.00;100718.24;105474;1291;66540;-71
2022/12/05 03:45:34;;;;;;;27.00;10.70;;;;;;;-1.16;100.00;100727.20;105361;1306;73469;-72
2022/12/05 03:48:46;;;;;;;25.60;10.70;;;;;;;-1.17;100.00;100721.31;105463;1297;58788;-71
2022/12/05 03:51:42;;;;;;;22.30;10.10;;;;;;;-1.15;100.00;100720.05;105455;1296;61593;-71
2022/12/05 03:54:43;;;;;;;27.90;12.40;;;;;;;-1.14;100.00;100719.33;105356;1302;73043;-71
2022/12/05 03:57:47;;;;;;;23.80;11.20;;;;;;;-1.17;100.00;100724.61;105495;1297;67123;-72
2022/12/05 04:00:41;;;;;;;22.10;9.60;;;;;;;-1.17;100.00;100725.83;105386;1304;71308;-71
2022/12/05 04:03:50;;;;;;;24.50;11.30;;;;;;;-1.16;100.00;100718.85;105483;1297;58574;-71
2022/12/05 04:06:42;;;;;;;24.60;12.20;;;;;;;-1.15;100.00;100717.27;105457;1297;59301;-70
2022/12/05 04:09:43;;;;;;;23.90;10.80;;;;;;;-1.18;100.00;100718.88;105268;1298;72503;-72
2022/12/05 04:12:34;;;;;;;25.00;11.60;;;;;;;-1.17;100.00;100717.83;105377;1297;66552;-71
2022/12/05 04:17:02;;;;;;;25.40;12.00;;;;;;;-1.15;100.00;100731.55;105473;1292;73534;-73
2022/12/05 04:18:43;;;;;;;26.40;12.40;;;;;;;-1.19;100.00;100727.44;105439;1303;58553;-72
2022/12/05 04:21:41;;;;;;;23.20;10.70;;;;;;;-1.21;100.00;100722.95;105989;1284;58712;-71
2022/12/05 04:27:59;;;;;;;24.90;12.40;;;;;;;-1.20;100.00;100715.95;105932;1291;66763;-71
2022/12/05 04:31:06;;;;;;;21.70;9.00;;;;;;;-1.22;100.00;100711.27;105714;1295;72882;-72
2022/12/05 04:34:04;;;;;;;19.80;8.00;;;;;;;-1.21;100.00;100709.70;105876;1290;58787;-71
2022/12/05 04:37:00;;;;;;;28.30;13.10;;;;;;;-1.25;100.00;100709.44;105871;1287;58974;-71
2022/12/05 04:39:59;;;;;;;21.10;10.40;;;;;;;-1.25;100.00;100707.86;106028;1290;73018;-71
2022/12/05 04:42:49;;;;;;;25.00;11.60;;;;;;;-1.28;100.00;100714.73;105866;1290;69136;-71
2022/12/05 04:45:40;;;;;;;26.20;10.90;;;;;;;-1.29;100.00;100710.04;105247;1290;1002775;-73
2022/12/05 04:48:28;;;;;;;27.90;12.60;;;;;;;-1.28;100.00;100713.85;105909;1292;58234;-73
2022/12/05 04:51:22;;;;;;;24.00;11.80;;;;;;;-1.30;100.00;100712.14;105899;1292;60190;-73
2022/12/05 04:54:29;;;;;;;24.60;11.70;;;;;;;-1.31;100.00;100702.75;105801;1294;71971;-73
2022/12/05 04:57:32;;;;;;;25.80;12.60;;;;;;;-1.27;100.00;100707.73;105753;1290;67830;-73
2022/12/05 05:00:20;;;;;;;27.80;12.20;;;;;;;-1.22;100.00;100707.81;105795;1291;71231;-73
2022/12/05 05:03:19;;;;;;;27.00;12.30;;;;;;;-1.19;100.00;100711.95;105759;1292;58540;-73
2022/12/05 05:06:10;;;;;;;31.50;13.90;;;;;;;-1.18;100.00;100708.95;105734;1287;58941;-74
2022/12/05 05:08:58;;;;;;;29.20;13.50;;;;;;;-1.15;100.00;100706.80;105858;1292;70968;-75
2022/12/05 05:11:47;;;;;;;23.80;11.70;;;;;;;-1.10;100.00;100708.10;105808;1291;66169;-71
2022/12/05 05:14:35;;;;;;;22.20;10.30;;;;;;;-1.06;100.00;100706.64;105989;1281;72483;-73
2022/12/05 05:17:23;;;;;;;28.60;13.40;;;;;;;-1.05;100.00;100706.09;105987;1285;58350;-71
2022/12/05 05:20:24;;;;;;;31.70;14.30;;;;;;;-1.03;100.00;100702.39;106008;1291;61163;-73
2022/12/05 05:23:12;;;;;;;21.60;9.40;;;;;;;-1.01;100.00;100701.31;106052;1284;72725;-73
2022/12/05 05:25:59;;;;;;;25.90;12.60;;;;;;;-1.03;100.00;100697.86;106048;1289;68031;-73
2022/12/05 05:28:49;;;;;;;28.10;12.40;;;;;;;-1.08;100.00;100697.09;106082;1284;72539;-75
2022/12/05 05:31:38;;;;;;;25.90;13.20;;;;;;;-1.13;100.00;100695.11;105881;1289;58682;-72
2022/12/05 05:34:27;;;;;;;26.00;12.10;;;;;;;-1.15;100.00;100697.41;105841;1284;61199;-73
2022/12/05 05:37:15;;;;;;;25.50;11.60;;;;;;;-1.19;100.00;100696.27;105851;1295;70551;-75
2022/12/05 05:40:05;;;;;;;25.60;12.20;;;;;;;-1.17;100.00;100697.80;105887;1289;67548;-74
2022/12/05 05:42:57;;;;;;;25.20;12.20;;;;;;;-1.18;100.00;100693.98;105974;1290;72567;-76
2022/12/05 05:45:45;;;;;;;26.30;11.60;;;;;;;-1.17;100.00;100699.70;105957;1291;57475;-74
2022/12/05 05:48:33;;;;;;;24.20;11.30;;;;;;;-1.22;100.00;100701.36;105662;1284;184783;-73
2022/12/05 05:51:26;;;;;;;30.10;13.20;;;;;;;-1.26;100.00;100700.92;105890;1294;70990;-74
2022/12/05 05:54:14;;;;;;;24.60;10.90;;;;;;;-1.27;100.00;100705.12;105873;1299;67918;-73
2022/12/05 05:57:01;;;;;;;30.00;12.90;;;;;;;-1.25;100.00;100704.05;105808;1291;72353;-76
2022/12/05 05:59:49;;;;;;;26.00;12.30;;;;;;;-1.28;100.00;100705.48;105912;1289;58703;-73
2022/12/05 06:02:37;;;;;;;24.50;11.70;;;;;;;-1.27;100.00;100701.46;105976;1291;60066;-72
2022/12/05 06:05:24;;;;;;;25.40;11.80;;;;;;;-1.23;100.00;100698.44;105963;1284;71938;-72
2022/12/05 06:08:17;;;;;;;24.70;11.70;;;;;;;-1.19;100.00;100698.88;105998;1291;67552;-72
2022/12/05 06:11:20;;;;;;;28.30;13.10;;;;;;;-1.19;100.00;100704.27;105974;1282;72612;-71
2022/12/05 06:14:13;;;;;;;26.50;11.50;;;;;;;-1.21;100.00;100712.66;105890;1291;58678;-74
2022/12/05 06:17:00;;;;;;;21.60;11.00;;;;;;;-1.23;100.00;100712.01;105968;1290;60093;-72
2022/12/05 06:19:50;;;;;;;21.70;10.30;;;;;;;-1.23;100.00;100716.02;105978;1298;71377;-71
2022/12/05 06:22:38;;;;;;;22.30;10.90;;;;;;;-1.29;100.00;100715.95;105962;1290;67861;-71
2022/12/05 06:25:26;;;;;;;23.40;9.50;;;;;;;-1.31;100.00;100713.90;105223;1292;1002358;-72
2022/12/05 06:28:14;;;;;;;24.30;11.80;;;;;;;-1.31;100.00;100713.02;105219;1284;1002070;-71
2022/12/05 06:31:20;;;;;;;27.10;12.90;;;;;;;-1.29;100.00;100716.30;105990;1291;58892;-73
2022/12/05 06:34:08;;;;;;;25.00;12.30;;;;;;;-1.24;100.00;100715.85;105778;1289;73379;-73
2022/12/05 06:36:56;;;;;;;26.40;10.80;;;;;;;-1.22;100.00;100714.42;105990;1292;67562;-73
2022/12/05 06:39:44;;;;;;;21.40;9.90;;;;;;;-1.19;100.00;100713.86;105857;1293;73675;-72
2022/12/05 06:42:32;;;;;;;22.00;10.70;;;;;;;-1.21;100.00;100719.46;105885;1292;57143;-73
2022/12/05 06:45:19;;;;;;;19.60;8.70;;;;;;;-1.28;100.00;100713.31;105004;1286;1002413;-73
2022/12/05 06:48:07;;;;;;;22.80;9.40;;;;;;;-1.31;100.00;100713.20;105980;1290;70683;-71
2022/12/05 06:50:55;;;;;;;24.80;11.90;;;;;;;-1.36;100.00;100713.30;105860;1292;68918;-72
2022/12/05 06:53:43;;;;;;;22.50;10.10;;;;;;;-1.37;100.00;100708.09;105986;1284;71365;-74
2022/12/05 06:56:30;;;;;;;20.60;9.10;;;;;;;-1.37;100.00;100710.52;105962;1284;58885;-72
2022/12/05 06:59:18;;;;;;;24.30;11.70;;;;;;;-1.40;100.00;100712.13;105950;1284;60191;-73
2022/12/05 07:02:07;;;;;;;22.70;10.30;;;;;;;-1.39;100.00;100712.45;105939;1292;70851;-73
2022/12/05 07:04:55;;;;;;;18.90;8.20;;;;;;;-1.38;100.00;100719.41;105859;1291;66884;-72
2022/12/05 07:07:42;;;;;;;24.90;10.80;;;;;;;-1.40;100.00;100725.89;105883;1298;71352;-73
2022/12/05 07:10:30;;;;;;;22.40;9.40;;;;;;;-1.39;100.00;100729.86;105860;1292;60044;-72
2022/12/05 07:13:18;;;;;;;22.60;10.50;;;;;;;-1.37;100.00;100726.71;105966;1290;61590;-71
2022/12/05 07:16:06;;;;;;;22.30;10.40;;;;;;;-1.34;100.00;100728.05;105895;1292;71995;-75
2022/12/05 07:18:53;;;;;;;24.00;11.00;;;;;;;-1.35;100.00;100720.58;105894;1298;68144;-72
2022/12/05 07:21:41;;;;;;;19.90;9.20;;;;;;;-1.33;100.00;100715.85;105925;1291;72495;-72
2022/12/05 07:24:29;;;;;;;26.60;12.20;;;;;;;-1.32;100.00;100713.04;105952;1292;58521;-72
2022/12/05 07:27:16;;;;;;;24.50;10.60;;;;;;;-1.30;100.00;100708.65;105939;1290;61141;-73
2022/12/05 07:30:13;;;;;;;23.70;10.90;;;;;;;-1.30;100.00;100710.23;105989;1291;73444;-72
2022/12/05 07:33:00;;;;;;;26.00;10.60;;;;;;;-1.32;100.00;100706.60;105976;1291;68054;-72
2022/12/05 07:35:48;;;;;;;23.80;11.20;;;;;;;-1.28;100.00;100708.98;105883;1292;73502;-72
2022/12/05 07:38:36;;;;;;;29.50;12.20;;;;;;;-1.25;100.00;100709.09;105893;1299;59535;-72
2022/12/05 07:41:28;;;;;;;28.30;12.90;;;;;;;-1.26;100.00;100707.70;105961;1291;61655;-72
2022/12/05 07:44:16;;;;;;;25.60;12.60;;;;;;;-1.22;100.00;100713.89;105907;1287;72196;-73
2022/12/05 07:47:03;;;;;;;29.80;11.10;;;;;;;-1.18;100.00;100710.71;106025;1284;67862;-72
2022/12/05 07:49:51;;;;;;;33.00;13.60;;;;;;;-1.16;100.00;100710.14;105975;1291;73438;-72
2022/12/05 07:52:38;;;;;;;29.70;12.70;;;;;;;-1.15;100.00;100708.20;105990;1285;60242;-72
2022/12/05 07:55:26;;;;;;;28.40;12.30;;;;;;;-1.15;100.00;100709.95;105870;1288;61160;-72
2022/12/05 07:58:13;;;;;;;28.90;12.50;;;;;;;-1.08;100.00;100704.92;105980;1291;73009;-72
2022/12/05 08:01:25;;;;;;;27.20;11.40;;;;;;;-1.02;100.00;100703.25;105974;1290;68662;-72
2022/12/05 08:04:13;;;;;;;24.80;12.10;;;;;;;-0.95;100.00;100702.76;105858;1287;73421;-71
2022/12/05 08:07:02;;;;;;;26.80;12.00;;;;;;;-1.02;100.00;100699.77;105957;1290;58688;-72
2022/12/05 08:09:49;;;;;;;25.70;11.10;;;;;;;-1.02;100.00;100699.23;105980;1290;61815;-73
2022/12/05 08:12:37;;;;;;;32.00;12.60;;;;;;;-1.04;100.00;100701.55;105972;1283;73198;-70
2022/12/05 08:15:25;;;;;;;22.90;10.00;;;;;;;-1.12;100.00;100702.58;105956;1291;68966;-73
2022/12/05 08:18:13;;;;;;;28.40;13.50;;;;;;;-1.16;100.00;100704.39;105969;1284;73508;-71
2022/12/05 08:21:10;;;;;;;29.60;11.60;;;;;;;-1.15;100.00;100704.90;105968;1298;59517;-71
2022/12/05 08:23:58;;;;;;;30.70;13.70;;;;;;;-1.13;100.00;100702.06;105839;1294;60116;-71
2022/12/05 08:26:46;;;;;;;26.10;10.90;;;;;;;-1.10;100.00;100706.55;105975;1284;71931;-74
2022/12/05 08:29:34;;;;;;;29.90;13.40;;;;;;;-1.04;100.00;100701.03;105979;1290;66699;-71
2022/12/05 08:32:21;;;;;;;31.80;14.00;;;;;;;-1.03;100.00;100704.13;105872;1298;73922;-72
2022/12/05 08:35:09;;;;;;;27.90;13.10;;;;;;;-1.01;100.00;100705.14;105969;1282;58435;-72
2022/12/05 08:37:56;;;;;;;31.30;13.50;;;;;;;-1.05;100.00;100704.02;105982;1290;58106;-73
2022/12/05 08:40:46;;;;;;;30.90;14.20;;;;;;;-1.08;100.00;100697.61;105974;1291;73040;-71
2022/12/05 08:43:34;;;;;;;31.10;13.20;;;;;;;-1.06;100.00;100694.26;105982;1291;68716;-71
2022/12/05 08:46:21;;;;;;;31.40;13.90;;;;;;;-1.04;100.00;100698.42;105903;1289;71339;-71
2022/12/05 08:49:10;;;;;;;28.70;11.70;;;;;;;-1.06;100.00;100701.41;105963;1284;58516;-72
2022/12/05 08:51:58;;;;;;;29.30;12.60;;;;;;;-1.09;100.00;100706.52;105859;1290;60477;-71
2022/12/05 08:54:46;;;;;;;29.40;11.60;;;;;;;-1.04;100.00;100705.90;105982;1291;71288;-72
2022/12/05 08:57:33;;;;;;;30.40;14.00;;;;;;;-1.01;100.00;100707.95;105980;1290;68662;-71
2022/12/05 09:00:21;;;;;;;29.80;13.50;;;;;;;-1.04;100.00;100705.55;105975;1290;72489;-72
2022/12/05 09:03:11;;;;;;;36.50;15.00;;;;;;;-1.04;100.00;100697.02;105972;1291;56892;-72
2022/12/05 09:06:21;;;;;;;31.20;14.40;;;;;;;-1.01;100.00;100696.96;105994;1291;60363;-73
2022/12/05 09:09:10;;;;;;;30.90;14.80;;;;;;;-0.97;100.00;100693.92;105989;1290;72221;-71
2022/12/05 09:11:59;;;;;;;32.90;14.30;;;;;;;-0.95;100.00;100693.00;105976;1291;67777;-73
2022/12/05 09:14:47;;;;;;;26.50;12.10;;;;;;;-0.94;100.00;100693.85;105964;1299;73698;-71
2022/12/05 09:17:35;;;;;;;32.30;14.60;;;;;;;-0.94;100.00;100689.15;105997;1282;57058;-71
2022/12/05 09:20:23;;;;;;;27.80;14.00;;;;;;;-0.92;100.00;100689.80;105900;1292;61114;-71
2022/12/05 09:23:11;;;;;;;30.50;12.70;;;;;;;-0.94;100.00;100688.99;106003;1291;70805;-70
2022/12/05 09:26:05;;;;;;;31.60;13.50;;;;;;;-0.95;100.00;100684.11;105931;1292;67582;-72
2022/12/05 09:28:53;;;;;;;29.80;13.40;;;;;;;-0.99;100.00;100680.38;105977;1275;73715;-73
2022/12/05 09:31:41;;;;;;;34.40;14.40;;;;;;;-1.01;100.00;100675.36;105966;1284;59836;-71
2022/12/05 09:34:29;;;;;;;29.90;13.00;;;;;;;-1.05;100.00;100673.52;105987;1291;60066;-73
2022/12/05 09:37:17;;;;;;;31.10;14.10;;;;;;;-1.06;100.00;100669.36;105983;1291;72189;-72
2022/12/05 09:40:25;;;;;;;32.70;14.90;;;;;;;-1.03;100.00;100664.59;105966;1290;68631;-72
2022/12/05 09:43:35;;;;;;;33.70;13.60;;;;;;;-0.98;100.00;100664.67;105957;1292;73274;-73
2022/12/05 09:46:47;;;;;;;29.70;14.00;;;;;;;-0.97;100.00;100656.64;105895;1298;56984;-72
2022/12/05 09:49:43;;;;;;;24.80;10.90;;;;;;;-0.97;100.00;100650.36;105982;1284;61550;-71
2022/12/05 09:52:36;;;;;;;31.90;13.40;;;;;;;-0.93;100.00;100644.88;105908;1291;71264;-72
2022/12/05 09:55:38;;;;;;;25.70;12.50;;;;;;;-0.92;100.00;100647.83;105878;1292;67295;-72
2022/12/05 09:58:49;;;;;;;25.70;11.50;;;;;;;-0.97;100.00;100642.02;105902;1295;71071;-72
2022/12/05 10:02:01;;;;;;;26.60;11.10;;;;;;;-1.00;100.00;100640.66;105863;1287;58541;-71
2022/12/05 10:04:59;;;;;;;28.20;12.20;;;;;;;-1.00;100.00;100636.31;105833;1290;60327;-71
2022/12/05 10:08:21;;;;;;;29.10;12.70;;;;;;;-1.02;100.00;100635.47;105918;1290;72498;-74
2022/12/05 10:11:19;;;;;;;31.70;12.70;;;;;;;-1.05;100.00;100637.30;105903;1293;67436;-71
2022/12/05 10:14:34;;;;;;;31.00;12.80;;;;;;;-1.07;100.00;100633.84;105866;1291;71035;-73
2022/12/05 10:17:36;;;;;;;35.70;13.20;;;;;;;-1.08;100.00;100627.94;105871;1292;56840;-71
2022/12/05 10:20:31;;;;;;;30.70;12.80;;;;;;;-1.08;100.00;100622.37;105868;1294;60330;-73
2022/12/05 10:23:26;;;;;;;31.30;12.70;;;;;;;-1.09;100.00;100617.16;105878;1290;72120;-71
2022/12/05 10:26:58;;;;;;;29.40;13.50;;;;;;;-1.08;100.00;100616.11;105904;1291;67585;-72
2022/12/05 10:30:17;;;;;;;32.20;13.00;;;;;;;-1.06;100.00;100610.48;105901;1292;71120;-72
2022/12/05 10:33:20;;;;;;;34.00;13.60;;;;;;;-1.01;100.00;100606.04;105865;1284;58792;-72
2022/12/05 10:36:12;;;;;;;31.00;13.60;;;;;;;-1.00;100.00;100607.91;105868;1295;60264;-71
2022/12/05 10:39:00;;;;;;;30.50;12.90;;;;;;;-1.01;100.00;100609.70;105926;1291;70880;-73
2022/12/05 10:41:50;;;;;;;31.70;13.60;;;;;;;-1.01;100.00;100603.42;105865;1280;68987;-71
2022/12/05 10:44:39;;;;;;;30.30;13.10;;;;;;;-1.01;100.00;100605.17;105957;1291;73709;-71
2022/12/05 10:47:26;;;;;;;31.30;14.10;;;;;;;-1.02;100.00;100601.51;105946;1291;58521;-72
2022/12/05 10:50:30;;;;;;;32.90;13.00;;;;;;;-1.03;100.00;100595.09;105971;1284;60029;-72
2022/12/05 10:53:24;;;;;;;32.30;14.20;;;;;;;-1.09;100.00;100596.80;105232;1291;1002885;-74
2022/12/05 10:56:46;;;;;;;30.00;13.50;;;;;;;-1.12;100.00;100595.80;105905;1292;66199;-73
2022/12/05 10:59:46;;;;;;;35.60;14.90;;;;;;;-1.14;100.00;100594.46;105871;1284;72508;-72
2022/12/05 11:02:36;;;;;;;34.90;14.70;;;;;;;-1.13;100.00;100590.61;105891;1284;58708;-73
2022/12/05 11:05:30;;;;;;;36.20;14.60;;;;;;;-1.13;100.00;100593.05;105959;1292;60285;-70
2022/12/05 11:08:25;;;;;;;37.20;14.80;;;;;;;-1.12;100.00;100590.95;105864;1292;73253;-72
2022/12/05 11:11:33;;;;;;;31.90;14.20;;;;;;;-1.10;100.00;100587.24;105986;1285;67763;-72
2022/12/05 11:14:25;;;;;;;34.40;14.70;;;;;;;-1.10;100.00;100588.11;105857;1290;72416;-74
2022/12/05 11:17:31;;;;;;;26.90;11.10;;;;;;;-1.10;100.00;100582.02;105869;1291;57985;-72
2022/12/05 11:20:18;;;;;;;34.50;15.80;;;;;;;-1.08;100.00;100587.89;105143;1291;1002954;-71
2022/12/05 11:23:29;;;;;;;31.80;13.40;;;;;;;-1.09;100.00;100582.85;105969;1291;72038;-73
2022/12/05 11:26:36;;;;;;;39.00;13.30;;;;;;;-1.13;100.00;100572.48;105929;1292;67473;-71
2022/12/05 11:29:35;;;;;;;35.90;14.40;;;;;;;-1.15;100.00;100571.14;105822;1294;72679;-72
2022/12/05 11:32:30;;;;;;;41.30;15.10;;;;;;;-1.14;100.00;100571.12;105935;1284;58505;-71
2022/12/05 11:35:25;;;;;;;37.10;14.50;;;;;;;-1.12;100.00;100569.69;105958;1284;61504;-72
2022/12/05 11:38:16;;;;;;;33.50;14.00;;;;;;;-1.09;100.00;100575.36;105876;1290;71173;-73
2022/12/05 11:41:42;;;;;;;35.40;15.10;;;;;;;-1.10;100.00;100576.45;105987;1290;66459;-72
2022/12/05 11:45:03;;;;;;;34.50;15.10;;;;;;;-1.09;100.00;100572.58;105200;1292;1002407;-73
2022/12/05 11:48:21;;;;;;;38.60;14.80;;;;;;;-1.07;100.00;100567.48;105976;1290;59579;-72
2022/12/05 11:51:41;;;;;;;44.40;15.30;;;;;;;-1.07;100.00;100565.21;105963;1288;61328;-71
2022/12/05 11:54:50;;;;;;;48.20;16.10;;;;;;;-1.06;100.00;100563.28;105946;1290;71998;-72
2022/12/05 11:58:15;;;;;;;44.20;13.50;;;;;;;-1.08;100.00;100558.27;105959;1288;68647;-71
2022/12/05 12:01:41;;;;;;;32.90;13.20;;;;;;;-1.07;100.00;100553.89;105962;1291;71436;-72
2022/12/05 12:05:07;;;;;;;31.50;12.10;;;;;;;-1.06;100.00;100552.48;105975;1291;57276;-72
2022/12/05 12:08:26;;;;;;;30.40;13.00;;;;;;;-1.09;100.00;100549.92;105877;1295;59148;-72
2022/12/05 12:11:41;;;;;;;31.30;12.90;;;;;;;-1.14;100.00;100549.00;105966;1291;73254;-71
2022/12/05 12:14:51;;;;;;;34.50;14.00;;;;;;;-1.14;100.00;100547.10;105800;1291;68768;-73
2022/12/05 12:18:03;;;;;;;30.70;12.20;;;;;;;-1.21;100.00;100541.84;105820;1291;71794;-71
2022/12/05 12:21:13;;;;;;;27.10;11.70;;;;;;;-1.24;100.00;100533.20;105884;1291;57371;-71
2022/12/05 12:24:54;;;;;;;31.50;11.90;;;;;;;-1.27;100.00;100525.26;105996;1282;58381;-72
2022/12/05 12:28:06;;;;;;;26.80;11.00;;;;;;;-1.30;100.00;100517.47;105899;1290;72143;-72
2022/12/05 12:31:19;;;;;;;31.70;13.10;;;;;;;-1.30;100.00;100509.47;105991;1298;67596;-72
2022/12/05 12:35:01;;;;;;;29.60;12.70;;;;;;;-1.29;100.00;100505.44;105876;1291;72346;-74
2022/12/05 12:38:17;;;;;;;33.30;13.90;;;;;;;-1.29;100.00;100505.63;105400;1298;58017;-73
2022/12/05 12:41:26;;;;;;;31.10;12.50;;;;;;;-1.35;100.00;100508.02;104641;1299;1002145;-72
2022/12/05 12:44:58;;;;;;;33.70;13.00;;;;;;;-1.34;100.00;100507.13;104642;1301;1002974;-71
2022/12/05 12:48:40;;;;;;;29.30;12.10;;;;;;;-1.32;100.00;100501.52;105385;1298;67641;-73
2022/12/05 12:51:30;;;;;;;29.10;12.80;;;;;;;-1.31;100.00;100498.35;104712;1304;74001;-72
2022/12/05 12:54:28;;;;;;;27.50;12.70;;;;;;;-1.30;100.00;100500.42;104732;1306;57870;-73
2022/12/05 12:58:05;;;;;;;33.80;12.70;;;;;;;-1.30;100.00;100491.20;104721;1304;61185;-72
2022/12/05 13:01:23;;;;;;;32.30;13.00;;;;;;;-1.31;100.00;100494.86;104707;1305;72231;-71
2022/12/05 13:04:26;;;;;;;29.80;11.30;;;;;;;-1.35;100.00;100491.98;104724;1306;67958;-72
2022/12/05 13:07:15;;;;;;;33.70;13.90;;;;;;;-1.34;100.00;100489.20;103974;1312;1002294;-73
2022/12/05 13:10:18;;;;;;;32.80;13.20;;;;;;;-1.29;100.00;100481.94;105256;1305;59809;-70